sensor_id;sensor_type;location;lat;lon;timestamp;pressure;altitude;pressure_sealevel;temperature;humidity
23677;BME280;31493;49.058;12.190;2024-02-21T00:01:33;97024.94;;;4.78;100.00
23677;BME280;31493;49.058;12.190;2024-02-21T00:04:00;97021.13;;;4.88;100.00
23677;BME280;31493;49.058;12.190;2024-02-21T00:06:27;97011.41;;;4.73;100.00
23677;BME280;31493;49.058;12.190;2024-02-21T00:08:54;97008.13;;;4.68;100.00
23677;BME280;31493;49.058;12.190;2024-02-21T00:11:22;97011.25;;;4.77;100.00
23677;BME280;31493;49.058;12.190;2024-02-21T00:13:49;97003.75;;;4.71;100.00
23677;BME280;31493;49.058;12.190;2024-02-21T00:16:17;97005.16;;;4.80;100.00
23677;BME280;31493;49.058;12.190;2024-02-21T00:18:44;96991.81;;;4.69;100.00
23677;BME280;31493;49.058;12.190;2024-02-21T00:21:11;97001.38;;;4.65;100.00
23677;BME280;31493;49.058;12.190;2024-02-21T00:23:43;96992.88;;;4.63;100.00
23677;BME280;31493;49.058;12.190;2024-02-21T00:26:11;96990.34;;;4.61;100.00
23677;BME280;31493;49.058;12.190;2024-02-21T00:28:40;96997.63;;;4.49;100.00
23677;BME280;31493;49.058;12.190;2024-02-21T00:31:07;96997.22;;;4.61;100.00
23677;BME280;31493;49.058;12.190;2024-02-21T00:33:34;96993.75;;;4.62;100.00
23677;BME280;31493;49.058;12.190;2024-02-21T00:36:01;96993.50;;;4.70;100.00
23677;BME280;31493;49.058;12.190;2024-02-21T00:38:28;96985.78;;;4.70;100.00
23677;BME280;31493;49.058;12.190;2024-02-21T00:40:55;96980.91;;;4.62;100.00
23677;BME280;31493;49.058;12.190;2024-02-21T00:43:22;96977.97;;;4.48;100.00
23677;BME280;31493;49.058;12.190;2024-02-21T00:45:51;96984.66;;;4.52;100.00
23677;BME280;31493;49.058;12.190;2024-02-21T00:48:18;96979.72;;;4.47;100.00
23677;BME280;31493;49.058;12.190;2024-02-21T00:50:45;96975.22;;;4.54;100.00
23677;BME280;31493;49.058;12.190;2024-02-21T00:53:12;96982.22;;;4.49;100.00
23677;BME280;31493;49.058;12.190;2024-02-21T00:55:39;96985.16;;;4.63;100.00
23677;BME280;31493;49.058;12.190;2024-02-21T00:58:07;96975.56;;;4.68;100.00
23677;BME280;31493;49.058;12.190;2024-02-21T01:00:34;96970.22;;;4.74;100.00
23677;BME280;31493;49.058;12.190;2024-02-21T01:03:02;96962.56;;;4.73;100.00
23677;BME280;31493;49.058;12.190;2024-02-21T01:05:29;96974.25;;;4.56;100.00
23677;BME280;31493;49.058;12.190;2024-02-21T01:07:56;96970.78;;;4.57;100.00
23677;BME280;31493;49.058;12.190;2024-02-21T01:10:24;96968.28;;;4.56;100.00
23677;BME280;31493;49.058;12.190;2024-02-21T01:12:51;96966.66;;;4.53;100.00
23677;BME280;31493;49.058;12.190;2024-02-21T01:15:18;96964.13;;;4.52;100.00
23677;BME280;31493;49.058;12.190;2024-02-21T01:17:45;96973.56;;;4.51;100.00
23677;BME280;31493;49.058;12.190;2024-02-21T01:20:13;96955.59;;;4.51;100.00
23677;BME280;31493;49.058;12.190;2024-02-21T01:22:40;96964.19;;;4.50;100.00
23677;BME280;31493;49.058;12.190;2024-02-21T01:25:08;96954.38;;;4.36;100.00
23677;BME280;31493;49.058;12.190;2024-02-21T01:27:35;96963.00;;;4.34;100.00
23677;BME280;31493;49.058;12.190;2024-02-21T01:30:02;96959.81;;;4.27;100.00
23677;BME280;31493;49.058;12.190;2024-02-21T01:32:29;96950.13;;;4.35;100.00
23677;BME280;31493;49.058;12.190;2024-02-21T01:34:56;96957.84;;;4.35;100.00
23677;BME280;31493;49.058;12.190;2024-02-21T01:37:25;96952.91;;;4.29;100.00
23677;BME280;31493;49.058;12.190;2024-02-21T01:39:52;96943.34;;;4.34;100.00
23677;BME280;31493;49.058;12.190;2024-02-21T01:42:19;96937.31;;;4.35;100.00
23677;BME280;31493;49.058;12.190;2024-02-21T01:44:46;96949.44;;;4.30;100.00
23677;BME280;31493;49.058;12.190;2024-02-21T01:47:13;96933.28;;;4.27;100.00
23677;BME280;31493;49.058;12.190;2024-02-21T01:49:41;96927.94;;;4.34;100.00
23677;BME280;31493;49.058;12.190;2024-02-21T01:52:08;96931.81;;;4.20;100.00
23677;BME280;31493;49.058;12.190;2024-02-21T01:54:38;96922.19;;;4.51;100.00
23677;BME280;31493;49.058;12.190;2024-02-21T01:57:05;96917.66;;;4.08;100.00
23677;BME280;31493;49.058;12.190;2024-02-21T01:59:33;96924.31;;;4.13;100.00
23677;BME280;31493;49.058;12.190;2024-02-21T02:02:02;96921.13;;;4.07;100.00
23677;BME280;31493;49.058;12.190;2024-02-21T02:04:29;96913.53;;;4.04;100.00
23677;BME280;31493;49.058;12.190;2024-02-21T02:06:57;96916.81;;;4.07;100.00
23677;BME280;31493;49.058;12.190;2024-02-21T02:09:26;96918.66;;;4.04;100.00
23677;BME280;31493;49.058;12.190;2024-02-21T02:11:55;96904.94;;;4.05;100.00
23677;BME280;31493;49.058;12.190;2024-02-21T02:14:24;96900.66;;;4.05;100.00
23677;BME280;31493;49.058;12.190;2024-02-21T02:16:51;96897.00;;;3.86;100.00
23677;BME280;31493;49.058;12.190;2024-02-21T02:19:18;96907.06;;;3.92;100.00
23677;BME280;31493;49.058;12.190;2024-02-21T02:21:49;96899.66;;;3.83;100.00
23677;BME280;31493;49.058;12.190;2024-02-21T02:24:20;96897.72;;;3.90;100.00
23677;BME280;31493;49.058;12.190;2024-02-21T02:26:47;96891.47;;;3.98;100.00
23677;BME280;31493;49.058;12.190;2024-02-21T02:29:14;96881.56;;;3.88;100.00
23677;BME280;31493;49.058;12.190;2024-02-21T02:31:42;96885.88;;;4.12;100.00
23677;BME280;31493;49.058;12.190;2024-02-21T02:34:09;96880.41;;;3.96;100.00
23677;BME280;31493;49.058;12.190;2024-02-21T02:36:36;96882.63;;;4.07;100.00
23677;BME280;31493;49.058;12.190;2024-02-21T02:39:03;96874.50;;;3.94;100.00
23677;BME280;31493;49.058;12.190;2024-02-21T02:41:34;96873.75;;;3.91;100.00
23677;BME280;31493;49.058;12.190;2024-02-21T02:44:01;96864.47;;;3.87;100.00
23677;BME280;31493;49.058;12.190;2024-02-21T02:46:28;96865.69;;;4.01;100.00
23677;BME280;31493;49.058;12.190;2024-02-21T02:48:55;96857.63;;;3.87;100.00
23677;BME280;31493;49.058;12.190;2024-02-21T02:51:22;96848.78;;;3.96;100.00
23677;BME280;31493;49.058;12.190;2024-02-21T02:53:49;96852.22;;;3.95;100.00
23677;BME280;31493;49.058;12.190;2024-02-21T02:56:16;96854.78;;;3.95;100.00
23677;BME280;31493;49.058;12.190;2024-02-21T02:58:45;96844.59;;;3.93;100.00
23677;BME280;31493;49.058;12.190;2024-02-21T03:01:12;96852.28;;;3.93;100.00
23677;BME280;31493;49.058;12.190;2024-02-21T03:03:39;96845.16;;;4.01;100.00
23677;BME280;31493;49.058;12.190;2024-02-21T03:06:06;96844.28;;;4.02;100.00
23677;BME280;31493;49.058;12.190;2024-02-21T03:08:33;96848.28;;;3.84;100.00
23677;BME280;31493;49.058;12.190;2024-02-21T03:11:00;96852.34;;;3.92;100.00
23677;BME280;31493;49.058;12.190;2024-02-21T03:13:28;96851.50;;;3.91;100.00
23677;BME280;31493;49.058;12.190;2024-02-21T03:15:56;96855.91;;;3.88;100.00
23677;BME280;31493;49.058;12.190;2024-02-21T03:18:23;96851.44;;;3.93;100.00
23677;BME280;31493;49.058;12.190;2024-02-21T03:20:50;96844.75;;;3.89;100.00
23677;BME280;31493;49.058;12.190;2024-02-21T03:23:17;96853.28;;;3.89;100.00
23677;BME280;31493;49.058;12.190;2024-02-21T03:25:44;96844.06;;;4.08;100.00
23677;BME280;31493;49.058;12.190;2024-02-21T03:28:11;96847.25;;;3.90;100.00
23677;BME280;31493;49.058;12.190;2024-02-21T03:30:38;96841.41;;;3.87;100.00
23677;BME280;31493;49.058;12.190;2024-02-21T03:33:07;96831.84;;;3.90;100.00
23677;BME280;31493;49.058;12.190;2024-02-21T03:35:34;96836.84;;;3.95;100.00
23677;BME280;31493;49.058;12.190;2024-02-21T03:38:01;96836.19;;;3.88;100.00
23677;BME280;31493;49.058;12.190;2024-02-21T03:40:28;96831.41;;;3.77;100.00
23677;BME280;31493;49.058;12.190;2024-02-21T03:42:55;96833.84;;;3.82;100.00
23677;BME280;31493;49.058;12.190;2024-02-21T03:45:22;96826.06;;;3.85;100.00
23677;BME280;31493;49.058;12.190;2024-02-21T03:47:49;96827.72;;;3.86;100.00
23677;BME280;31493;49.058;12.190;2024-02-21T03:50:17;96825.66;;;3.71;100.00
23677;BME280;31493;49.058;12.190;2024-02-21T03:52:44;96823.72;;;3.77;100.00
23677;BME280;31493;49.058;12.190;2024-02-21T03:55:11;96818.00;;;3.69;100.00
23677;BME280;31493;49.058;12.190;2024-02-21T03:57:38;96833.28;;;3.72;100.00
23677;BME280;31493;49.058;12.190;2024-02-21T04:00:06;96826.47;;;3.73;100.00
23677;BME280;31493;49.058;12.190;2024-02-21T04:02:37;96833.66;;;3.62;100.00
23677;BME280;31493;49.058;12.190;2024-02-21T04:05:04;96830.84;;;3.69;100.00
23677;BME280;31493;49.058;12.190;2024-02-21T04:07:33;96820.72;;;3.65;100.00
23677;BME280;31493;49.058;12.190;2024-02-21T04:10:00;96829.88;;;3.73;100.00
23677;BME280;31493;49.058;12.190;2024-02-21T04:12:27;96829.31;;;3.64;100.00
23677;BME280;31493;49.058;12.190;2024-02-21T04:14:54;96815.72;;;3.62;100.00
23677;BME280;31493;49.058;12.190;2024-02-21T04:17:21;96820.53;;;3.71;100.00
23677;BME280;31493;49.058;12.190;2024-02-21T04:19:48;96828.22;;;3.71;100.00
23677;BME280;31493;49.058;12.190;2024-02-21T04:22:15;96820.03;;;3.59;100.00
23677;BME280;31493;49.058;12.190;2024-02-21T04:24:44;96823.19;;;3.68;100.00
23677;BME280;31493;49.058;12.190;2024-02-21T04:27:11;96811.78;;;3.76;100.00
23677;BME280;31493;49.058;12.190;2024-02-21T04:29:38;96815.38;;;3.71;100.00
23677;BME280;31493;49.058;12.190;2024-02-21T04:32:06;96810.13;;;3.75;100.00
23677;BME280;31493;49.058;12.190;2024-02-21T04:34:33;96817.97;;;3.71;100.00
23677;BME280;31493;49.058;12.190;2024-02-21T04:37:00;96797.22;;;3.77;100.00
23677;BME280;31493;49.058;12.190;2024-02-21T04:39:27;96791.19;;;3.79;100.00
23677;BME280;31493;49.058;12.190;2024-02-21T04:41:56;96795.63;;;3.74;100.00
23677;BME280;31493;49.058;12.190;2024-02-21T04:44:23;96799.22;;;3.69;100.00
23677;BME280;31493;49.058;12.190;2024-02-21T04:46:50;96797.91;;;3.82;100.00
23677;BME280;31493;49.058;12.190;2024-02-21T04:49:17;96788.66;;;3.78;100.00
23677;BME280;31493;49.058;12.190;2024-02-21T04:51:45;96794.00;;;3.97;100.00
23677;BME280;31493;49.058;12.190;2024-02-21T04:54:12;96782.38;;;3.87;100.00
23677;BME280;31493;49.058;12.190;2024-02-21T04:56:39;96780.75;;;3.84;100.00
23677;BME280;31493;49.058;12.190;2024-02-21T04:59:07;96785.25;;;3.77;100.00
23677;BME280;31493;49.058;12.190;2024-02-21T05:01:34;96789.34;;;3.83;100.00
23677;BME280;31493;49.058;12.190;2024-02-21T05:04:01;96780.03;;;3.80;100.00
23677;BME280;31493;49.058;12.190;2024-02-21T05:06:29;96779.75;;;3.88;100.00
23677;BME280;31493;49.058;12.190;2024-02-21T05:08:56;96783.69;;;3.98;100.00
23677;BME280;31493;49.058;12.190;2024-02-21T05:11:23;96780.31;;;3.71;100.00
23677;BME280;31493;49.058;12.190;2024-02-21T05:13:50;96778.97;;;3.86;100.00
23677;BME280;31493;49.058;12.190;2024-02-21T05:16:19;96763.31;;;3.69;100.00
23677;BME280;31493;49.058;12.190;2024-02-21T05:18:46;96762.22;;;3.76;100.00
23677;BME280;31493;49.058;12.190;2024-02-21T05:21:13;96763.63;;;3.84;100.00
23677;BME280;31493;49.058;12.190;2024-02-21T05:23:40;96764.91;;;4.21;100.00
23677;BME280;31493;49.058;12.190;2024-02-21T05:26:07;96764.84;;;3.74;100.00
23677;BME280;31493;49.058;12.190;2024-02-21T05:28:34;96755.63;;;3.69;100.00
23677;BME280;31493;49.058;12.190;2024-02-21T05:31:01;96754.47;;;3.77;100.00
23677;BME280;31493;49.058;12.190;2024-02-21T05:33:30;96750.44;;;3.70;100.00
23677;BME280;31493;49.058;12.190;2024-02-21T05:35:57;96749.59;;;3.70;100.00
23677;BME280;31493;49.058;12.190;2024-02-21T05:38:24;96739.53;;;3.89;100.00
23677;BME280;31493;49.058;12.190;2024-02-21T05:40:51;96751.38;;;3.93;100.00
23677;BME280;31493;49.058;12.190;2024-02-21T05:43:19;96744.47;;;3.95;100.00
23677;BME280;31493;49.058;12.190;2024-02-21T05:45:46;96738.97;;;3.80;100.00
23677;BME280;31493;49.058;12.190;2024-02-21T05:48:14;96739.50;;;3.65;100.00
23677;BME280;31493;49.058;12.190;2024-02-21T05:50:43;96734.97;;;3.73;100.00
23677;BME280;31493;49.058;12.190;2024-02-21T05:53:10;96742.66;;;3.73;100.00
23677;BME280;31493;49.058;12.190;2024-02-21T05:55:37;96727.41;;;3.69;100.00
23677;BME280;31493;49.058;12.190;2024-02-21T05:58:04;96728.34;;;3.66;100.00
23677;BME280;31493;49.058;12.190;2024-02-21T06:00:32;96715.41;;;3.69;100.00
23677;BME280;31493;49.058;12.190;2024-02-21T06:02:59;96713.22;;;3.58;100.00
23677;BME280;31493;49.058;12.190;2024-02-21T06:05:26;96724.16;;;3.64;100.00
23677;BME280;31493;49.058;12.190;2024-02-21T06:07:55;96712.22;;;3.63;100.00
23677;BME280;31493;49.058;12.190;2024-02-21T06:10:22;96720.28;;;3.77;100.00
23677;BME280;31493;49.058;12.190;2024-02-21T06:12:49;96725.53;;;3.74;100.00
23677;BME280;31493;49.058;12.190;2024-02-21T06:15:16;96716.19;;;3.71;100.00
23677;BME280;31493;49.058;12.190;2024-02-21T06:17:43;96708.97;;;3.82;100.00
23677;BME280;31493;49.058;12.190;2024-02-21T06:20:10;96713.59;;;3.73;100.00
23677;BME280;31493;49.058;12.190;2024-02-21T06:22:38;96710.75;;;3.80;100.00
23677;BME280;31493;49.058;12.190;2024-02-21T06:25:07;96714.44;;;3.73;100.00
23677;BME280;31493;49.058;12.190;2024-02-21T06:27:34;96724.94;;;3.66;100.00
23677;BME280;31493;49.058;12.190;2024-02-21T06:30:01;96720.19;;;3.80;100.00
23677;BME280;31493;49.058;12.190;2024-02-21T06:32:28;96722.75;;;3.80;100.00
23677;BME280;31493;49.058;12.190;2024-02-21T06:34:55;96721.91;;;3.79;100.00
23677;BME280;31493;49.058;12.190;2024-02-21T06:37:22;96725.81;;;3.90;100.00
23677;BME280;31493;49.058;12.190;2024-02-21T06:39:50;96738.84;;;3.85;100.00
23677;BME280;31493;49.058;12.190;2024-02-21T06:42:18;96725.66;;;3.94;100.00
23677;BME280;31493;49.058;12.190;2024-02-21T06:44:47;96736.41;;;3.80;100.00
23677;BME280;31493;49.058;12.190;2024-02-21T06:47:14;96739.38;;;3.93;100.00
23677;BME280;31493;49.058;12.190;2024-02-21T06:49:41;96749.22;;;4.05;100.00
23677;BME280;31493;49.058;12.190;2024-02-21T06:52:08;96751.72;;;4.07;100.00
23677;BME280;31493;49.058;12.190;2024-02-21T06:54:35;96749.47;;;4.23;100.00
23677;BME280;31493;49.058;12.190;2024-02-21T06:57:02;96753.25;;;4.12;100.00
23677;BME280;31493;49.058;12.190;2024-02-21T06:59:31;96756.56;;;4.16;100.00
23677;BME280;31493;49.058;12.190;2024-02-21T07:01:58;96740.81;;;4.25;100.00
23677;BME280;31493;49.058;12.190;2024-02-21T07:04:26;96741.78;;;4.23;100.00
23677;BME280;31493;49.058;12.190;2024-02-21T07:06:55;96740.19;;;4.19;100.00
23677;BME280;31493;49.058;12.190;2024-02-21T07:09:22;96731.38;;;4.26;100.00
23677;BME280;31493;49.058;12.190;2024-02-21T07:11:49;96715.88;;;4.29;100.00
23677;BME280;31493;49.058;12.190;2024-02-21T07:14:16;96728.84;;;4.01;100.00
23677;BME280;31493;49.058;12.190;2024-02-21T07:16:44;96716.63;;;4.07;100.00
23677;BME280;31493;49.058;12.190;2024-02-21T07:19:11;96728.56;;;3.85;100.00
23677;BME280;31493;49.058;12.190;2024-02-21T07:21:38;96735.22;;;4.14;100.00
23677;BME280;31493;49.058;12.190;2024-02-21T07:24:08;96730.16;;;4.12;100.00
23677;BME280;31493;49.058;12.190;2024-02-21T07:26:35;96731.88;;;4.12;100.00
23677;BME280;31493;49.058;12.190;2024-02-21T07:29:02;96738.69;;;4.13;100.00
23677;BME280;31493;49.058;12.190;2024-02-21T07:31:29;96756.44;;;4.19;100.00
23677;BME280;31493;49.058;12.190;2024-02-21T07:33:57;96756.66;;;4.13;100.00
23677;BME280;31493;49.058;12.190;2024-02-21T07:36:28;96758.78;;;4.25;100.00
23677;BME280;31493;49.058;12.190;2024-02-21T07:38:56;96754.03;;;4.38;100.00
23677;BME280;31493;49.058;12.190;2024-02-21T07:41:23;96753.13;;;4.39;100.00
23677;BME280;31493;49.058;12.190;2024-02-21T07:43:50;96751.56;;;4.58;100.00
23677;BME280;31493;49.058;12.190;2024-02-21T07:46:17;96737.19;;;4.76;100.00
23677;BME280;31493;49.058;12.190;2024-02-21T07:48:45;96736.09;;;4.83;100.00
23677;BME280;31493;49.058;12.190;2024-02-21T07:51:13;96731.81;;;4.60;100.00
23677;BME280;31493;49.058;12.190;2024-02-21T07:53:42;96730.28;;;4.78;100.00
23677;BME280;31493;49.058;12.190;2024-02-21T07:56:10;96722.44;;;4.81;100.00
23677;BME280;31493;49.058;12.190;2024-02-21T07:58:37;96712.53;;;4.94;100.00
23677;BME280;31493;49.058;12.190;2024-02-21T08:01:04;96718.09;;;4.83;100.00
23677;BME280;31493;49.058;12.190;2024-02-21T08:03:31;96718.03;;;5.07;100.00
23677;BME280;31493;49.058;12.190;2024-02-21T08:05:58;96703.00;;;4.98;100.00
23677;BME280;31493;49.058;12.190;2024-02-21T08:08:27;96692.44;;;4.82;100.00
23677;BME280;31493;49.058;12.190;2024-02-21T08:10:54;96676.06;;;5.06;100.00
23677;BME280;31493;49.058;12.190;2024-02-21T08:13:21;96667.72;;;5.01;100.00
23677;BME280;31493;49.058;12.190;2024-02-21T08:15:48;96665.44;;;4.93;100.00
23677;BME280;31493;49.058;12.190;2024-02-21T08:18:15;96662.56;;;5.01;100.00
23677;BME280;31493;49.058;12.190;2024-02-21T08:20:42;96670.34;;;5.00;100.00
23677;BME280;31493;49.058;12.190;2024-02-21T08:23:09;96684.50;;;5.10;100.00
23677;BME280;31493;49.058;12.190;2024-02-21T08:25:37;96682.00;;;5.08;100.00
23677;BME280;31493;49.058;12.190;2024-02-21T08:28:05;96668.00;;;5.36;100.00
23677;BME280;31493;49.058;12.190;2024-02-21T08:30:32;96676.97;;;5.47;100.00
23677;BME280;31493;49.058;12.190;2024-02-21T08:32:59;96669.69;;;5.57;100.00
23677;BME280;31493;49.058;12.190;2024-02-21T08:35:26;96669.13;;;5.90;100.00
23677;BME280;31493;49.058;12.190;2024-02-21T08:37:53;96670.34;;;5.81;100.00
23677;BME280;31493;49.058;12.190;2024-02-21T08:40:20;96662.06;;;5.95;100.00
23677;BME280;31493;49.058;12.190;2024-02-21T08:42:49;96656.38;;;6.07;100.00
23677;BME280;31493;49.058;12.190;2024-02-21T08:45:16;96656.63;;;5.82;100.00
23677;BME280;31493;49.058;12.190;2024-02-21T08:47:43;96664.44;;;6.18;100.00
23677;BME280;31493;49.058;12.190;2024-02-21T08:50:10;96681.56;;;6.19;100.00
23677;BME280;31493;49.058;12.190;2024-02-21T08:52:37;96680.22;;;6.30;100.00
23677;BME280;31493;49.058;12.190;2024-02-21T08:55:05;96682.69;;;6.33;100.00
23677;BME280;31493;49.058;12.190;2024-02-21T08:57:32;96683.44;;;6.16;100.00
23677;BME280;31493;49.058;12.190;2024-02-21T09:00:05;96673.81;;;6.00;100.00
23677;BME280;31493;49.058;12.190;2024-02-21T09:02:36;96680.22;;;5.71;100.00
23677;BME280;31493;49.058;12.190;2024-02-21T09:05:04;96662.06;;;5.95;100.00
23677;BME280;31493;49.058;12.190;2024-02-21T09:07:31;96663.81;;;5.94;100.00
23677;BME280;31493;49.058;12.190;2024-02-21T09:09:58;96655.16;;;5.95;100.00
23677;BME280;31493;49.058;12.190;2024-02-21T09:12:26;96653.22;;;6.00;100.00
23677;BME280;31493;49.058;12.190;2024-02-21T09:14:53;96651.97;;;6.09;100.00
23677;BME280;31493;49.058;12.190;2024-02-21T09:17:22;96631.44;;;6.26;100.00
23677;BME280;31493;49.058;12.190;2024-02-21T09:19:51;96637.25;;;6.13;100.00
23677;BME280;31493;49.058;12.190;2024-02-21T09:22:18;96639.59;;;6.55;100.00
23677;BME280;31493;49.058;12.190;2024-02-21T09:24:45;96622.75;;;6.65;100.00
23677;BME280;31493;49.058;12.190;2024-02-21T09:27:13;96636.97;;;6.74;100.00
23677;BME280;31493;49.058;12.190;2024-02-21T09:29:40;96641.09;;;6.95;100.00
23677;BME280;31493;49.058;12.190;2024-02-21T09:32:07;96633.50;;;6.92;100.00
23677;BME280;31493;49.058;12.190;2024-02-21T09:34:35;96626.59;;;7.10;100.00
23677;BME280;31493;49.058;12.190;2024-02-21T09:37:02;96617.72;;;7.16;100.00
23677;BME280;31493;49.058;12.190;2024-02-21T09:39:30;96621.31;;;7.30;100.00
23677;BME280;31493;49.058;12.190;2024-02-21T09:41:59;96636.81;;;7.48;100.00
23677;BME280;31493;49.058;12.190;2024-02-21T09:44:33;96626.00;;;7.05;100.00
23677;BME280;31493;49.058;12.190;2024-02-21T09:47:04;96623.63;;;7.37;100.00
23677;BME280;31493;49.058;12.190;2024-02-21T09:49:34;96615.81;;;7.71;100.00
23677;BME280;31493;49.058;12.190;2024-02-21T09:52:05;96606.47;;;7.69;100.00
23677;BME280;31493;49.058;12.190;2024-02-21T09:54:34;96602.38;;;7.98;100.00
23677;BME280;31493;49.058;12.190;2024-02-21T09:57:01;96601.22;;;8.03;100.00
23677;BME280;31493;49.058;12.190;2024-02-21T09:59:31;96608.38;;;8.14;100.00
23677;BME280;31493;49.058;12.190;2024-02-21T10:01:58;96602.63;;;8.25;100.00
23677;BME280;31493;49.058;12.190;2024-02-21T10:04:26;96596.50;;;8.27;100.00
23677;BME280;31493;49.058;12.190;2024-02-21T10:06:53;96584.66;;;8.23;100.00
23677;BME280;31493;49.058;12.190;2024-02-21T10:09:23;96590.47;;;8.27;100.00
23677;BME280;31493;49.058;12.190;2024-02-21T10:11:50;96591.88;;;8.32;100.00
23677;BME280;31493;49.058;12.190;2024-02-21T10:14:17;96595.38;;;8.63;100.00
23677;BME280;31493;49.058;12.190;2024-02-21T10:16:46;96585.44;;;8.71;100.00
23677;BME280;31493;49.058;12.190;2024-02-21T10:19:17;96584.28;;;8.61;99.69
23677;BME280;31493;49.058;12.190;2024-02-21T10:21:57;96591.19;;;8.76;100.00
23677;BME280;31493;49.058;12.190;2024-02-21T10:24:27;96582.94;;;9.00;100.00
23677;BME280;31493;49.058;12.190;2024-02-21T10:26:59;96568.69;;;8.92;100.00
23677;BME280;31493;49.058;12.190;2024-02-21T10:29:26;96577.88;;;9.12;100.00
23677;BME280;31493;49.058;12.190;2024-02-21T10:32:04;96573.72;;;9.26;100.00
23677;BME280;31493;49.058;12.190;2024-02-21T10:34:31;96574.41;;;9.13;100.00
23677;BME280;31493;49.058;12.190;2024-02-21T10:37:00;96575.88;;;9.47;100.00
23677;BME280;31493;49.058;12.190;2024-02-21T10:39:29;96566.13;;;9.37;96.95
23677;BME280;31493;49.058;12.190;2024-02-21T10:41:59;96576.16;;;9.71;99.20
23677;BME280;31493;49.058;12.190;2024-02-21T10:44:28;96547.31;;;9.63;93.87
23677;BME280;31493;49.058;12.190;2024-02-21T10:46:56;96556.28;;;9.58;90.85
23677;BME280;31493;49.058;12.190;2024-02-21T10:49:24;96561.34;;;10.02;94.12
23677;BME280;31493;49.058;12.190;2024-02-21T10:51:54;96561.06;;;9.92;91.51
23677;BME280;31493;49.058;12.190;2024-02-21T10:54:34;96551.72;;;9.90;88.78
23677;BME280;31493;49.058;12.190;2024-02-21T10:57:06;96543.19;;;10.02;90.01
23677;BME280;31493;49.058;12.190;2024-02-21T10:59:33;96525.56;;;9.94;87.25
23677;BME280;31493;49.058;12.190;2024-02-21T11:02:38;96518.56;;;10.23;92.40
23677;BME280;31493;49.058;12.190;2024-02-21T11:05:07;96515.03;;;10.10;88.23
23677;BME280;31493;49.058;12.190;2024-02-21T11:07:36;96509.00;;;10.24;84.62
23677;BME280;31493;49.058;12.190;2024-02-21T11:10:04;96489.63;;;10.02;86.50
23677;BME280;31493;49.058;12.190;2024-02-21T11:12:33;96504.22;;;10.45;85.09
23677;BME280;31493;49.058;12.190;2024-02-21T11:15:04;96494.38;;;10.50;84.36
23677;BME280;31493;49.058;12.190;2024-02-21T11:17:31;96496.94;;;10.37;80.63
23677;BME280;31493;49.058;12.190;2024-02-21T11:20:10;96493.50;;;10.10;81.69
23677;BME280;31493;49.058;12.190;2024-02-21T11:22:41;96478.75;;;10.24;82.31
23677;BME280;31493;49.058;12.190;2024-02-21T11:25:08;96478.13;;;10.61;83.86
23677;BME280;31493;49.058;12.190;2024-02-21T11:27:37;96476.72;;;10.82;81.47
23677;BME280;31493;49.058;12.190;2024-02-21T11:30:05;96463.28;;;10.63;80.97
23677;BME280;31493;49.058;12.190;2024-02-21T11:32:32;96450.22;;;10.64;82.17
23677;BME280;31493;49.058;12.190;2024-02-21T11:35:02;96446.69;;;10.78;80.50
23677;BME280;31493;49.058;12.190;2024-02-21T11:37:31;96452.72;;;10.78;79.31
23677;BME280;31493;49.058;12.190;2024-02-21T11:39:59;96438.28;;;10.62;78.83
23677;BME280;31493;49.058;12.190;2024-02-21T11:42:27;96438.06;;;10.65;78.71
23677;BME280;31493;49.058;12.190;2024-02-21T11:44:55;96423.31;;;10.52;77.78
23677;BME280;31493;49.058;12.190;2024-02-21T11:47:23;96434.34;;;10.69;80.27
23677;BME280;31493;49.058;12.190;2024-02-21T11:49:51;96425.53;;;10.71;75.94
23677;BME280;31493;49.058;12.190;2024-02-21T11:52:21;96422.09;;;10.71;73.74
23677;BME280;31493;49.058;12.190;2024-02-21T11:54:51;96401.47;;;10.69;74.08
23677;BME280;31493;49.058;12.190;2024-02-21T11:57:18;96411.94;;;10.68;71.32
23677;BME280;31493;49.058;12.190;2024-02-21T11:59:45;96404.94;;;10.95;72.81
23677;BME280;31493;49.058;12.190;2024-02-21T12:02:13;96409.91;;;11.11;71.25
23677;BME280;31493;49.058;12.190;2024-02-21T12:04:41;96404.25;;;11.43;72.94
23677;BME280;31493;49.058;12.190;2024-02-21T12:07:08;96396.91;;;11.36;71.64
23677;BME280;31493;49.058;12.190;2024-02-21T12:09:37;96388.81;;;11.28;67.96
23677;BME280;31493;49.058;12.190;2024-02-21T12:12:05;96387.94;;;11.53;70.56
23677;BME280;31493;49.058;12.190;2024-02-21T12:14:33;96372.03;;;11.45;69.63
23677;BME280;31493;49.058;12.190;2024-02-21T12:17:01;96373.06;;;11.55;68.61
23677;BME280;31493;49.058;12.190;2024-02-21T12:19:31;96380.22;;;11.02;67.60
23677;BME280;31493;49.058;12.190;2024-02-21T12:21:59;96364.13;;;11.10;67.33
23677;BME280;31493;49.058;12.190;2024-02-21T12:24:27;96376.41;;;10.82;69.95
23677;BME280;31493;49.058;12.190;2024-02-21T12:26:56;96368.97;;;11.27;68.78
23677;BME280;31493;49.058;12.190;2024-02-21T12:29:24;96360.94;;;10.94;67.05
23677;BME280;31493;49.058;12.190;2024-02-21T12:31:51;96361.84;;;11.55;68.90
23677;BME280;31493;49.058;12.190;2024-02-21T12:34:19;96344.78;;;11.27;62.97
23677;BME280;31493;49.058;12.190;2024-02-21T12:36:47;96340.56;;;11.13;65.70
23677;BME280;31493;49.058;12.190;2024-02-21T12:39:15;96346.56;;;11.14;61.40
23677;BME280;31493;49.058;12.190;2024-02-21T12:41:42;96333.75;;;10.99;65.16
23677;BME280;31493;49.058;12.190;2024-02-21T12:44:11;96336.47;;;10.85;65.25
23677;BME280;31493;49.058;12.190;2024-02-21T12:46:38;96336.13;;;10.90;65.83
23677;BME280;31493;49.058;12.190;2024-02-21T12:49:06;96331.75;;;10.52;64.59
23677;BME280;31493;49.058;12.190;2024-02-21T12:51:34;96321.50;;;10.63;66.72
23677;BME280;31493;49.058;12.190;2024-02-21T12:54:01;96311.66;;;10.68;63.65